首页
METAR-TAF:

METAR-TAF

机场 :

托尔马切沃机场

新西伯利亚, 俄罗斯

纬度: 55-01N, 经度: 082-38E, 海拔: 111米

当前天气观测

该预报发布于38分钟前的14:00 UTC
风速10节,风向西南
温度 -1°C
湿度 74%
气压 1022 hPa
能见度10公里或以上
少量云层高于3300英尺

METAR: UNNT 231400Z 22005MPS 9999 FEW033 M01/M05 Q1022 R25/090070 R16/090070 NOSIG RMK QFE756/1008

时间: 21:38 (14:38 UTC)

预报

该预报发布于3小时和38分钟前的11:00 UTC
预报有效从23日的 12点(UTC)到 24日的 12点(UTC)
风速16节,风向西南,有时为31节阵风
能见度10公里或以上
多云层高于2000英尺, 积雨云.
短暂存在
从 23日的 12点(UTC)到 24日的 03点(UTC)
能見度: 1500
多云层高于500英尺
多云层高于1100英尺, 积雨云.
阵雪, 雨
短暂存在
从 24日的 03点(UTC)到 24日的 12点(UTC)
能見度: 3100
多云层高于1100英尺, 积雨云.
小阵雪, 雨

TAF: UNNT 231100Z 2312/2412 22008G16MPS 9999 BKN020CB TEMPO 2312/2403 1500 SHSNRA BKN005 BKN011CB TEMPO 2403/2412 3100 -SHSNRA BKN011CB

超过4000个机场的气象观测和天气预报(METAR&TAF报告)。

可查询的气象台以黄色和红色小点在地图上表示。

将鼠标移到小点上方,可查看气象台名称。

然后点击查看天气观测和预报。

如需切换地图:点击带黑十字的绿色按钮放大地图;点击带横线的绿色按钮缩小地图;或者点击绿色箭头查看邻近地区的地图。


METAR-TAF: